sensor_id;sensor_type;location;lat;lon;timestamp;pressure;altitude;pressure_sealevel;temperature
51693;BMP280;37777;53.066;21.638;2024-02-14T00:05:01;100957.47;;;3.15
51693;BMP280;37777;53.066;21.638;2024-02-14T00:12:04;100963.34;;;3.12
51693;BMP280;37777;53.066;21.638;2024-02-14T00:19:06;100966.56;;;3.14
51693;BMP280;37777;53.066;21.638;2024-02-14T00:26:24;100976.97;;;3.21
51693;BMP280;37777;53.066;21.638;2024-02-14T00:33:25;100975.13;;;3.16
51693;BMP280;37777;53.066;21.638;2024-02-14T00:40:27;100971.94;;;3.04
51693;BMP280;37777;53.066;21.638;2024-02-14T01:04:12;100983.53;;;2.74
51693;BMP280;37777;53.066;21.638;2024-02-14T01:11:13;100991.28;;;2.75
51693;BMP280;37777;53.066;21.638;2024-02-14T01:18:15;100994.47;;;2.72
51693;BMP280;37777;53.066;21.638;2024-02-14T01:25:17;100991.81;;;2.72
51693;BMP280;37777;53.066;21.638;2024-02-14T01:49:11;101000.69;;;2.57
51693;BMP280;37777;53.066;21.638;2024-02-14T01:56:13;101002.81;;;2.55
51693;BMP280;37777;53.066;21.638;2024-02-14T02:03:17;101006.28;;;2.50
51693;BMP280;37777;53.066;21.638;2024-02-14T02:10:18;101002.56;;;2.41
51693;BMP280;37777;53.066;21.638;2024-02-14T02:26:03;101008.97;;;2.14
51693;BMP280;37777;53.066;21.638;2024-02-14T02:33:05;101016.72;;;2.11
51693;BMP280;37777;53.066;21.638;2024-02-14T02:56:51;101026.84;;;1.88
51693;BMP280;37777;53.066;21.638;2024-02-14T03:12:14;101033.19;;;1.72
51693;BMP280;37777;53.066;21.638;2024-02-14T03:19:17;101027.84;;;1.72
51693;BMP280;37777;53.066;21.638;2024-02-14T03:26:19;101025.16;;;1.61
51693;BMP280;37777;53.066;21.638;2024-02-14T03:33:21;101038.69;;;1.49
51693;BMP280;37777;53.066;21.638;2024-02-14T03:40:23;101034.44;;;1.54
51693;BMP280;37777;53.066;21.638;2024-02-14T03:47:25;101040.31;;;1.50
51693;BMP280;37777;53.066;21.638;2024-02-14T03:54:26;101046.19;;;1.58
51693;BMP280;37777;53.066;21.638;2024-02-14T04:01:29;101045.13;;;1.54
51693;BMP280;37777;53.066;21.638;2024-02-14T04:08:32;101063.75;;;1.48
51693;BMP280;37777;53.066;21.638;2024-02-14T04:23:57;101056.03;;;1.47
51693;BMP280;37777;53.066;21.638;2024-02-14T04:30:58;101056.78;;;1.32
51693;BMP280;37777;53.066;21.638;2024-02-14T04:46:22;101063.94;;;1.21
51693;BMP280;37777;53.066;21.638;2024-02-14T04:53:23;101077.44;;;1.09
51693;BMP280;37777;53.066;21.638;2024-02-14T05:00:25;101076.88;;;1.07
51693;BMP280;37777;53.066;21.638;2024-02-14T05:07:27;101085.94;;;1.06
51693;BMP280;37777;53.066;21.638;2024-02-14T05:14:28;101091.53;;;1.05
51693;BMP280;37777;53.066;21.638;2024-02-14T05:21:32;101095.81;;;1.06
51693;BMP280;37777;53.066;21.638;2024-02-14T05:28:34;101106.13;;;0.92
51693;BMP280;37777;53.066;21.638;2024-02-14T05:35:35;101090.34;;;0.90
51693;BMP280;37777;53.066;21.638;2024-02-14T05:42:37;101107.66;;;0.88
51693;BMP280;37777;53.066;21.638;2024-02-14T05:49:39;101116.16;;;0.84
51693;BMP280;37777;53.066;21.638;2024-02-14T05:56:41;101110.16;;;0.99
51693;BMP280;37777;53.066;21.638;2024-02-14T06:03:42;101117.91;;;1.06
51693;BMP280;37777;53.066;21.638;2024-02-14T06:10:44;101120.84;;;1.05
51693;BMP280;37777;53.066;21.638;2024-02-14T06:17:46;101119.53;;;1.07
51693;BMP280;37777;53.066;21.638;2024-02-14T06:24:47;101118.56;;;1.19
51693;BMP280;37777;53.066;21.638;2024-02-14T06:40:20;101128.28;;;1.40
51693;BMP280;37777;53.066;21.638;2024-02-14T06:47:22;101145.13;;;1.51
51693;BMP280;37777;53.066;21.638;2024-02-14T07:11:08;101159.38;;;1.67
51693;BMP280;37777;53.066;21.638;2024-02-14T07:35:13;101156.78;;;1.93
51693;BMP280;37777;53.066;21.638;2024-02-14T07:42:15;101155.50;;;2.00
51693;BMP280;37777;53.066;21.638;2024-02-14T07:49:16;101159.84;;;2.12
51693;BMP280;37777;53.066;21.638;2024-02-14T07:56:18;101156.94;;;2.24
51693;BMP280;37777;53.066;21.638;2024-02-14T08:03:20;101169.22;;;2.30
51693;BMP280;37777;53.066;21.638;2024-02-14T08:10:21;101158.31;;;2.47
51693;BMP280;37777;53.066;21.638;2024-02-14T08:25:46;101179.75;;;2.98
51693;BMP280;37777;53.066;21.638;2024-02-14T08:32:48;101170.63;;;3.15
51693;BMP280;37777;53.066;21.638;2024-02-14T08:39:49;101179.94;;;3.43
51693;BMP280;37777;53.066;21.638;2024-02-14T08:46:51;101173.72;;;3.58
51693;BMP280;37777;53.066;21.638;2024-02-14T09:10:37;101186.56;;;4.27
51693;BMP280;37777;53.066;21.638;2024-02-14T09:17:38;101180.78;;;4.49
51693;BMP280;37777;53.066;21.638;2024-02-14T09:41:46;101180.56;;;5.09
51693;BMP280;37777;53.066;21.638;2024-02-14T09:57:14;101176.78;;;5.63
51693;BMP280;37777;53.066;21.638;2024-02-14T10:04:18;101168.56;;;5.74
51693;BMP280;37777;53.066;21.638;2024-02-14T10:28:05;101155.75;;;6.09
51693;BMP280;37777;53.066;21.638;2024-02-14T10:35:10;101154.19;;;6.22
51693;BMP280;37777;53.066;21.638;2024-02-14T10:50:55;101138.59;;;6.57
51693;BMP280;37777;53.066;21.638;2024-02-14T11:06:22;101128.97;;;6.83
51693;BMP280;37777;53.066;21.638;2024-02-14T11:13:29;101125.91;;;7.04
51693;BMP280;37777;53.066;21.638;2024-02-14T11:20:35;101123.03;;;7.14
51693;BMP280;37777;53.066;21.638;2024-02-14T11:27:44;101123.13;;;7.23
51693;BMP280;37777;53.066;21.638;2024-02-14T11:34:55;101121.16;;;7.15
51693;BMP280;37777;53.066;21.638;2024-02-14T11:42:10;101125.28;;;7.21
51693;BMP280;37777;53.066;21.638;2024-02-14T11:49:14;101124.31;;;7.17
51693;BMP280;37777;53.066;21.638;2024-02-14T11:56:36;101122.31;;;7.36
51693;BMP280;37777;53.066;21.638;2024-02-14T12:03:38;101118.00;;;7.49
51693;BMP280;37777;53.066;21.638;2024-02-14T12:10:42;101123.97;;;7.46
51693;BMP280;37777;53.066;21.638;2024-02-14T12:26:06;101116.72;;;7.83
51693;BMP280;37777;53.066;21.638;2024-02-14T12:33:07;101107.31;;;7.81
51693;BMP280;37777;53.066;21.638;2024-02-14T12:40:11;101113.53;;;7.81
51693;BMP280;37777;53.066;21.638;2024-02-14T12:55:41;101114.88;;;7.92
51693;BMP280;37777;53.066;21.638;2024-02-14T13:02:42;101113.56;;;7.90
51693;BMP280;37777;53.066;21.638;2024-02-14T13:09:44;101104.16;;;8.01
51693;BMP280;37777;53.066;21.638;2024-02-14T13:16:46;101108.19;;;8.13
51693;BMP280;37777;53.066;21.638;2024-02-14T13:23:48;101108.69;;;8.15
51693;BMP280;37777;53.066;21.638;2024-02-14T13:30:50;101107.53;;;8.07
51693;BMP280;37777;53.066;21.638;2024-02-14T13:37:55;101113.22;;;8.05
51693;BMP280;37777;53.066;21.638;2024-02-14T13:44:57;101114.84;;;8.06
51693;BMP280;37777;53.066;21.638;2024-02-14T13:51:59;101121.53;;;8.09
51693;BMP280;37777;53.066;21.638;2024-02-14T13:59:00;101114.09;;;8.15
51693;BMP280;37777;53.066;21.638;2024-02-14T14:06:03;101120.03;;;8.03
51693;BMP280;37777;53.066;21.638;2024-02-14T14:13:07;101111.22;;;7.88
51693;BMP280;37777;53.066;21.638;2024-02-14T14:20:09;101112.41;;;7.82
51693;BMP280;37777;53.066;21.638;2024-02-14T14:27:10;101113.34;;;7.78
51693;BMP280;37777;53.066;21.638;2024-02-14T14:34:15;101107.94;;;7.55
51693;BMP280;37777;53.066;21.638;2024-02-14T14:49:39;101116.13;;;7.22
51693;BMP280;37777;53.066;21.638;2024-02-14T14:56:40;101126.09;;;7.08
51693;BMP280;37777;53.066;21.638;2024-02-14T15:03:42;101123.53;;;6.89
51693;BMP280;37777;53.066;21.638;2024-02-14T15:10:44;101124.06;;;6.72
51693;BMP280;37777;53.066;21.638;2024-02-14T15:17:45;101128.22;;;6.50
51693;BMP280;37777;53.066;21.638;2024-02-14T15:24:47;101123.03;;;6.40
51693;BMP280;37777;53.066;21.638;2024-02-14T15:31:49;101125.56;;;6.31
51693;BMP280;37777;53.066;21.638;2024-02-14T15:39:09;101131.31;;;6.24
51693;BMP280;37777;53.066;21.638;2024-02-14T15:46:13;101129.06;;;6.12
51693;BMP280;37777;53.066;21.638;2024-02-14T15:53:15;101142.16;;;6.00
51693;BMP280;37777;53.066;21.638;2024-02-14T16:00:17;101135.59;;;5.87
51693;BMP280;37777;53.066;21.638;2024-02-14T16:15:56;101124.19;;;5.57
51693;BMP280;37777;53.066;21.638;2024-02-14T16:22:58;101137.75;;;5.47
51693;BMP280;37777;53.066;21.638;2024-02-14T16:30:00;101140.03;;;5.35
51693;BMP280;37777;53.066;21.638;2024-02-14T16:37:02;101145.00;;;5.22
51693;BMP280;37777;53.066;21.638;2024-02-14T17:00:55;101159.81;;;4.90
51693;BMP280;37777;53.066;21.638;2024-02-14T17:16:19;101167.91;;;4.85
51693;BMP280;37777;53.066;21.638;2024-02-14T17:23:20;101165.50;;;4.84
51693;BMP280;37777;53.066;21.638;2024-02-14T17:30:22;101182.09;;;4.86
51693;BMP280;37777;53.066;21.638;2024-02-14T17:37:25;101172.44;;;4.85
51693;BMP280;37777;53.066;21.638;2024-02-14T17:44:26;101170.66;;;4.80
51693;BMP280;37777;53.066;21.638;2024-02-14T17:51:28;101165.88;;;4.72
51693;BMP280;37777;53.066;21.638;2024-02-14T17:58:31;101166.97;;;4.66
51693;BMP280;37777;53.066;21.638;2024-02-14T18:05:33;101171.34;;;4.62
51693;BMP280;37777;53.066;21.638;2024-02-14T18:12:39;101170.28;;;4.57
51693;BMP280;37777;53.066;21.638;2024-02-14T18:19:40;101170.56;;;4.56
51693;BMP280;37777;53.066;21.638;2024-02-14T18:26:42;101174.59;;;4.53
51693;BMP280;37777;53.066;21.638;2024-02-14T18:33:44;101182.09;;;4.51
51693;BMP280;37777;53.066;21.638;2024-02-14T18:41:04;101191.25;;;4.45
51693;BMP280;37777;53.066;21.638;2024-02-14T18:48:06;101187.78;;;4.45
51693;BMP280;37777;53.066;21.638;2024-02-14T18:55:09;101193.66;;;4.52
51693;BMP280;37777;53.066;21.638;2024-02-14T19:02:13;101185.31;;;4.53
51693;BMP280;37777;53.066;21.638;2024-02-14T19:17:43;101197.31;;;4.61
51693;BMP280;37777;53.066;21.638;2024-02-14T19:24:44;101187.91;;;4.64
51693;BMP280;37777;53.066;21.638;2024-02-14T19:31:46;101193.78;;;4.66
51693;BMP280;37777;53.066;21.638;2024-02-14T19:38:47;101189.75;;;4.68
51693;BMP280;37777;53.066;21.638;2024-02-14T19:54:12;101193.78;;;4.71
51693;BMP280;37777;53.066;21.638;2024-02-14T20:01:13;101193.78;;;4.71
51693;BMP280;37777;53.066;21.638;2024-02-14T20:08:15;101189.75;;;4.68
51693;BMP280;37777;53.066;21.638;2024-02-14T20:15:25;101191.09;;;4.71
51693;BMP280;37777;53.066;21.638;2024-02-14T20:22:29;101188.41;;;4.71
51693;BMP280;37777;53.066;21.638;2024-02-14T20:29:31;101186.00;;;4.69
51693;BMP280;37777;53.066;21.638;2024-02-14T20:36:33;101192.16;;;4.70
51693;BMP280;37777;53.066;21.638;2024-02-14T20:52:01;101187.84;;;4.74
51693;BMP280;37777;53.066;21.638;2024-02-14T20:59:03;101188.91;;;4.73
51693;BMP280;37777;53.066;21.638;2024-02-14T21:14:39;101167.72;;;4.76
51693;BMP280;37777;53.066;21.638;2024-02-14T21:21:40;101181.94;;;4.77
51693;BMP280;37777;53.066;21.638;2024-02-14T21:28:42;101161.28;;;4.78
51693;BMP280;37777;53.066;21.638;2024-02-14T21:35:43;101171.44;;;4.81
51693;BMP280;37777;53.066;21.638;2024-02-14T21:42:48;101155.63;;;4.79
51693;BMP280;37777;53.066;21.638;2024-02-14T21:49:55;101169.25;;;4.83
51693;BMP280;37777;53.066;21.638;2024-02-14T21:56:59;101159.09;;;4.80
51693;BMP280;37777;53.066;21.638;2024-02-14T22:04:01;101163.69;;;4.79
51693;BMP280;37777;53.066;21.638;2024-02-14T22:11:04;101164.22;;;4.81
51693;BMP280;37777;53.066;21.638;2024-02-14T22:59:55;101157.41;;;4.59
51693;BMP280;37777;53.066;21.638;2024-02-14T23:06:57;101162.75;;;4.59
51693;BMP280;37777;53.066;21.638;2024-02-14T23:47:42;101148.59;;;4.54
51693;BMP280;37777;53.066;21.638;2024-02-14T23:54:43;101145.13;;;4.53
